createdAt,value
2016-10-19T00:00:43.440Z,-1.68
2016-10-19T00:01:43.455Z,-1.78
2016-10-19T00:02:43.404Z,-1.75
2016-10-19T00:03:43.404Z,-1.71
2016-10-19T00:04:43.365Z,-1.53
2016-10-19T00:05:43.354Z,-1.7
2016-10-19T00:06:43.357Z,-1.77
2016-10-19T00:07:43.319Z,-1.86
2016-10-19T00:08:43.361Z,-1.89
2016-10-19T00:09:43.313Z,-1.82
2016-10-19T00:10:43.303Z,-1.8
2016-10-19T00:11:43.230Z,-1.71
2016-10-19T00:12:43.244Z,-1.75
2016-10-19T00:13:43.287Z,-1.85
2016-10-19T00:14:43.236Z,-1.77
2016-10-19T00:15:43.169Z,-1.78
2016-10-19T00:16:43.143Z,-1.82
2016-10-19T00:17:43.183Z,-1.86
2016-10-19T00:18:43.143Z,-1.8
2016-10-19T00:19:43.122Z,-1.72
2016-10-19T00:20:43.108Z,-1.68
2016-10-19T00:21:43.102Z,-1.71
2016-10-19T00:22:43.064Z,-1.67
2016-10-19T00:23:43.082Z,-1.57
2016-10-19T00:24:43.059Z,-1.7
2016-10-19T00:25:43.016Z,-1.78
2016-10-19T00:26:43.028Z,-1.8
2016-10-19T00:27:42.990Z,-1.88
2016-10-19T00:28:42.961Z,-1.92
2016-10-19T00:29:42.951Z,-1.9
2016-10-19T00:30:42.954Z,-1.92
2016-10-19T00:31:42.922Z,-1.95
2016-10-19T00:32:42.912Z,-1.95
2016-10-19T00:33:42.872Z,-1.85
2016-10-19T00:34:42.835Z,-1.78
2016-10-19T00:35:42.814Z,-1.68
2016-10-19T00:36:42.825Z,-1.71
2016-10-19T00:37:42.805Z,-1.85
2016-10-19T00:38:42.833Z,-1.89
2016-10-19T00:39:42.778Z,-1.98
2016-10-19T00:40:42.779Z,-1.95
2016-10-19T00:41:42.745Z,-1.86
2016-10-19T00:42:42.705Z,-1.8
2016-10-19T00:43:42.699Z,-1.78
2016-10-19T00:44:42.667Z,-1.71
2016-10-19T00:45:42.654Z,-1.77
2016-10-19T00:46:42.651Z,-1.68
2016-10-19T00:47:42.654Z,-1.77
2016-10-19T00:48:42.591Z,-1.72
2016-10-19T00:49:42.572Z,-1.77
2016-10-19T00:50:42.560Z,-1.85
2016-10-19T00:51:42.580Z,-1.86
2016-10-19T00:52:42.533Z,-1.93
2016-10-19T00:53:42.526Z,-1.89
2016-10-19T00:54:42.530Z,-1.98
2016-10-19T00:55:42.491Z,-1.9
2016-10-19T00:56:42.496Z,-1.95
2016-10-19T00:57:42.447Z,-1.95
2016-10-19T00:58:42.460Z,-2.08
2016-10-19T00:59:42.415Z,-2.08
2016-10-19T01:00:42.404Z,-2.04
2016-10-19T01:01:42.411Z,-2.06
2016-10-19T01:02:42.372Z,-1.98
2016-10-19T01:03:42.328Z,-2.16
2016-10-19T01:04:42.358Z,-2.13
2016-10-19T01:05:42.322Z,-1.93
2016-10-19T01:06:42.299Z,-1.95
2016-10-19T01:07:42.298Z,-2.06
2016-10-19T01:08:42.245Z,-2
2016-10-19T01:09:42.572Z,-2.04
2016-10-19T01:10:42.263Z,-2.03
2016-10-19T01:11:42.257Z,-1.93
2016-10-19T01:12:42.219Z,-2.01
2016-10-19T01:13:42.214Z,-2.04
2016-10-19T01:14:42.201Z,-2.1
2016-10-19T01:15:42.152Z,-2.11
2016-10-19T01:16:42.131Z,-2.11
2016-10-19T01:17:42.087Z,-2.14
2016-10-19T01:18:42.100Z,-2.08
2016-10-19T01:19:42.064Z,-2.07
2016-10-19T01:20:42.079Z,-2.01
2016-10-19T01:21:42.095Z,-2.03
2016-10-19T01:22:42.053Z,-2.01
2016-10-19T01:23:42.019Z,-2.03
2016-10-19T01:24:42.000Z,-1.89
2016-10-19T01:25:41.972Z,-1.98
2016-10-19T01:26:41.934Z,-1.89
2016-10-19T01:27:41.936Z,-2.08
2016-10-19T01:28:41.899Z,-1.95
2016-10-19T01:29:41.882Z,-1.9
2016-10-19T01:30:41.884Z,-1.85
2016-10-19T01:31:41.903Z,-1.89
2016-10-19T01:32:41.873Z,-1.9
2016-10-19T01:33:41.833Z,-1.88
2016-10-19T01:34:41.804Z,-1.78
2016-10-19T01:35:41.801Z,-1.89
2016-10-19T01:36:41.785Z,-1.92
2016-10-19T01:37:41.746Z,-2.08
2016-10-19T01:38:41.760Z,-2.04
2016-10-19T01:39:41.737Z,-2.06
2016-10-19T01:40:41.748Z,-2.1
2016-10-19T01:41:41.696Z,-2.14
2016-10-19T01:42:41.713Z,-2.26
2016-10-19T01:43:41.669Z,-2.24
2016-10-19T01:44:41.645Z,-2.19
2016-10-19T01:45:41.632Z,-2.21
2016-10-19T01:46:41.610Z,-2.19
2016-10-19T01:47:41.596Z,-2.08
2016-10-19T01:48:41.564Z,-2.18
2016-10-19T01:49:41.562Z,-2.25
2016-10-19T01:50:41.555Z,-2.24
2016-10-19T01:51:41.565Z,-2.21
2016-10-19T01:52:41.493Z,-2.18
2016-10-19T01:53:41.527Z,-2.03
2016-10-19T01:54:41.478Z,-2.1
2016-10-19T01:55:41.479Z,-2.08
2016-10-19T01:56:41.417Z,-2.01
2016-10-19T01:57:41.422Z,-2.11
2016-10-19T01:58:41.438Z,-2.04
2016-10-19T01:59:41.391Z,-2
2016-10-19T02:00:41.370Z,-2.07
2016-10-19T02:01:41.335Z,-2.04
2016-10-19T02:02:41.327Z,-2.06
2016-10-19T02:03:41.321Z,-1.92
2016-10-19T02:04:41.315Z,-1.85
2016-10-19T02:05:41.308Z,-1.93
2016-10-19T02:06:41.282Z,-1.92
2016-10-19T02:07:41.232Z,-2.01
2016-10-19T02:08:41.225Z,-2.07
2016-10-19T02:09:41.268Z,-2.06
2016-10-19T02:10:41.184Z,-2.04
2016-10-19T02:11:41.204Z,-2.18
2016-10-19T02:12:41.189Z,-2.28
2016-10-19T02:13:41.170Z,-2.16
2016-10-19T02:14:41.160Z,-2.1
2016-10-19T02:15:41.110Z,-2.08
2016-10-19T02:16:41.078Z,-2.26
2016-10-19T02:17:41.096Z,-2.14
2016-10-19T02:18:41.136Z,-2.1
2016-10-19T02:19:41.027Z,-2.06
2016-10-19T02:20:41.047Z,-1.9
2016-10-19T02:21:41.017Z,-1.92
2016-10-19T02:22:40.976Z,-1.88
2016-10-19T02:23:40.992Z,-1.9
2016-10-19T02:24:40.976Z,-2.07
2016-10-19T02:25:40.937Z,-2.19
2016-10-19T02:26:40.951Z,-2.25
2016-10-19T02:27:40.899Z,-2.19
2016-10-19T02:28:40.908Z,-1.98
2016-10-19T02:29:40.861Z,-2.01
2016-10-19T02:30:40.881Z,-2.03
2016-10-19T02:31:40.867Z,-1.92
2016-10-19T02:32:40.819Z,-1.86
2016-10-19T02:33:40.847Z,-2.03
2016-10-19T02:34:40.798Z,-2.04
2016-10-19T02:35:40.763Z,-2.07
2016-10-19T02:36:40.760Z,-2.07
2016-10-19T02:37:40.814Z,-2.06
2016-10-19T02:38:40.728Z,-2.11
2016-10-19T02:39:40.712Z,-2.21
2016-10-19T02:40:40.672Z,-2.21
2016-10-19T02:41:40.684Z,-2.21
2016-10-19T02:42:40.685Z,-2.22
2016-10-19T02:43:40.654Z,-2.22
2016-10-19T02:44:40.636Z,-2.22
2016-10-19T02:45:40.641Z,-2.25
2016-10-19T02:46:40.589Z,-2.18
2016-10-19T02:47:40.565Z,-2.22
2016-10-19T02:48:40.625Z,-2.21
2016-10-19T02:49:40.540Z,-2.21
2016-10-19T02:50:40.523Z,-2.26
2016-10-19T02:51:40.523Z,-2.19
2016-10-19T02:52:40.496Z,-2.28
2016-10-19T02:53:40.490Z,-2.33
2016-10-19T02:54:40.472Z,-2.19
2016-10-19T02:55:40.446Z,-2.32
2016-10-19T02:56:40.439Z,-2.25
2016-10-19T02:57:40.396Z,-2.37
2016-10-19T02:58:40.382Z,-2.33
2016-10-19T02:59:40.385Z,-2.37
2016-10-19T03:00:40.323Z,-2.38
2016-10-19T03:01:40.359Z,-2.37
2016-10-19T03:02:40.327Z,-2.19
2016-10-19T03:03:40.325Z,-2.26
2016-10-19T03:04:40.301Z,-2.24
2016-10-19T03:05:40.267Z,-2.25
2016-10-19T03:06:40.253Z,-2.18
2016-10-19T03:07:40.225Z,-2.26
2016-10-19T03:08:40.239Z,-2.25
2016-10-19T03:09:40.164Z,-2.25
2016-10-19T03:10:40.143Z,-2.28
2016-10-19T03:11:40.152Z,-2.25
2016-10-19T03:12:40.125Z,-2.22
2016-10-19T03:13:40.150Z,-2.19
2016-10-19T03:14:40.109Z,-2.22
2016-10-19T03:15:40.111Z,-2.26
2016-10-19T03:16:40.092Z,-2.26
2016-10-19T03:17:40.065Z,-2.35
2016-10-19T03:18:40.039Z,-2.26
2016-10-19T03:19:40.031Z,-2.26
2016-10-19T03:20:40.026Z,-2.22
2016-10-19T03:21:40.285Z,-2.35
2016-10-19T03:22:39.937Z,-2.18
2016-10-19T03:23:39.931Z,-2.19
2016-10-19T03:24:39.906Z,-2.08
2016-10-19T03:25:39.925Z,-2.06
2016-10-19T03:26:39.905Z,-2.11
2016-10-19T03:27:39.868Z,-2
2016-10-19T03:28:39.841Z,-2.19
2016-10-19T03:29:40.163Z,-2.1
2016-10-19T03:30:39.849Z,-2.08
2016-10-19T03:31:39.801Z,-2.1
2016-10-19T03:32:39.811Z,-2.03
2016-10-19T03:33:39.789Z,-2.07
2016-10-19T03:34:39.776Z,-2.06
2016-10-19T03:35:39.763Z,-2.04
2016-10-19T03:36:39.724Z,-2.01
2016-10-19T03:37:39.904Z,-1.95
2016-10-19T03:38:39.692Z,-2.08
2016-10-19T03:39:39.683Z,-2.06
2016-10-19T03:40:39.633Z,-2.01
2016-10-19T03:41:39.604Z,-2.07
2016-10-19T03:42:39.652Z,-1.98
2016-10-19T03:43:39.623Z,-2.03
2016-10-19T03:44:39.613Z,-2.01
2016-10-19T03:45:39.561Z,-2.04
2016-10-19T03:46:39.555Z,-2.01
2016-10-19T03:47:39.536Z,-2.08
2016-10-19T03:48:39.518Z,-2.14
2016-10-19T03:49:39.482Z,-2.22
2016-10-19T03:50:39.502Z,-2.21
2016-10-19T03:51:39.450Z,-2.24
2016-10-19T03:52:39.483Z,-2.13
2016-10-19T03:53:39.405Z,-2.1
2016-10-19T03:54:39.426Z,-2.08
2016-10-19T03:55:39.366Z,-2.19
2016-10-19T03:56:39.385Z,-2.07
2016-10-19T03:57:39.364Z,-2.08
2016-10-19T03:58:39.327Z,-2.08
2016-10-19T03:59:39.320Z,-2.04
2016-10-19T04:00:39.286Z,-2.01
2016-10-19T04:01:39.280Z,-1.93
2016-10-19T04:02:39.289Z,-2.06
2016-10-19T04:03:39.250Z,-2.01
2016-10-19T04:04:39.233Z,-2.04
2016-10-19T04:05:39.236Z,-2.08
2016-10-19T04:06:39.242Z,-2.06
2016-10-19T04:07:39.213Z,-2.04
2016-10-19T04:08:39.153Z,-2.18
2016-10-19T04:09:39.182Z,-2.19
2016-10-19T04:10:39.107Z,-2.11
2016-10-19T04:11:39.091Z,-2.07
2016-10-19T04:12:39.108Z,-2.07
2016-10-19T04:13:39.092Z,-2.01
2016-10-19T04:14:39.051Z,-2.07
2016-10-19T04:15:39.034Z,-2.03
2016-10-19T04:16:39.024Z,-2.19
2016-10-19T04:17:39.022Z,-2.14
2016-10-19T04:18:39.003Z,-2.19
2016-10-19T04:19:38.973Z,-2.07
2016-10-19T04:20:38.967Z,-2.01
2016-10-19T04:21:38.973Z,-2.19
2016-10-19T04:22:38.918Z,-2.1
2016-10-19T04:23:38.876Z,-2.01
2016-10-19T04:24:38.884Z,-2.01
2016-10-19T04:25:38.871Z,-2.19
2016-10-19T04:26:39.178Z,-2.08
2016-10-19T04:27:38.825Z,-2.16
2016-10-19T04:28:38.813Z,-2.03
2016-10-19T04:29:38.788Z,-2.03
2016-10-19T04:30:38.774Z,-2.11
2016-10-19T04:31:38.773Z,-1.93
2016-10-19T04:32:38.758Z,-1.93
2016-10-19T04:33:38.742Z,-2.1
2016-10-19T04:34:39.023Z,-1.93
2016-10-19T04:35:38.698Z,-2.01
2016-10-19T04:36:38.991Z,-2.1
2016-10-19T04:37:38.640Z,-2.11
2016-10-19T04:38:38.666Z,-2.03
2016-10-19T04:39:38.950Z,-2.21
2016-10-19T04:40:38.620Z,-2.28
2016-10-19T04:41:38.602Z,-2.07
2016-10-19T04:42:38.570Z,-2.04
2016-10-19T04:43:38.568Z,-2.07
2016-10-19T04:44:38.516Z,-2.08
2016-10-19T04:45:38.542Z,-1.96
2016-10-19T04:46:38.538Z,-2.07
2016-10-19T04:47:38.482Z,-2.04
2016-10-19T04:48:38.501Z,-2.03
2016-10-19T04:49:38.492Z,-2.03
2016-10-19T04:50:38.456Z,-2.06
2016-10-19T04:51:38.406Z,-2.07
2016-10-19T04:52:38.380Z,-1.95
2016-10-19T04:53:38.395Z,-2.01
2016-10-19T04:54:38.368Z,-2.07
2016-10-19T04:55:38.328Z,-2.16
2016-10-19T04:56:38.315Z,-2.07
2016-10-19T04:57:38.300Z,-2.07
2016-10-19T04:58:38.297Z,-2.06
2016-10-19T04:59:38.291Z,-1.98
2016-10-19T05:00:38.246Z,-2.03
2016-10-19T05:01:38.239Z,-2
2016-10-19T05:02:38.248Z,-2
2016-10-19T05:03:38.238Z,-1.88
2016-10-19T05:04:38.232Z,-2.06
2016-10-19T05:05:38.172Z,-2.13
2016-10-19T05:06:38.164Z,-2.19
2016-10-19T05:07:38.159Z,-2.28
2016-10-19T05:08:38.165Z,-2.16
2016-10-19T05:09:38.103Z,-2.18
2016-10-19T05:10:38.076Z,-2.22
2016-10-19T05:11:38.094Z,-2.24
2016-10-19T05:12:38.061Z,-2.21
2016-10-19T05:13:38.045Z,-2.25
2016-10-19T05:14:38.012Z,-2.19
2016-10-19T05:15:38.034Z,-2.03
2016-10-19T05:16:38.030Z,-2.07
2016-10-19T05:17:37.971Z,-2.04
2016-10-19T05:18:37.982Z,-2.16
2016-10-19T05:19:37.954Z,-2.19
2016-10-19T05:20:37.915Z,-2.21
2016-10-19T05:21:37.915Z,-2.24
2016-10-19T05:22:37.916Z,-2.19
2016-10-19T05:23:37.856Z,-2.1
2016-10-19T05:24:37.855Z,-2
2016-10-19T05:25:37.882Z,-2.06
2016-10-19T05:26:37.855Z,-2.03
2016-10-19T05:27:37.821Z,-1.93
2016-10-19T05:28:37.809Z,-2.01
2016-10-19T05:29:37.789Z,-1.95
2016-10-19T05:30:37.770Z,-1.78
2016-10-19T05:31:37.762Z,-1.85
2016-10-19T05:32:37.742Z,-1.89
2016-10-19T05:33:37.726Z,-1.88
2016-10-19T05:34:37.688Z,-1.83
2016-10-19T05:35:37.685Z,-1.68
2016-10-19T05:36:37.689Z,-1.8
2016-10-19T05:37:37.614Z,-1.83
2016-10-19T05:38:37.609Z,-1.86
2016-10-19T05:39:37.634Z,-1.75
2016-10-19T05:40:37.597Z,-1.71
2016-10-19T05:41:37.579Z,-1.85
2016-10-19T05:42:37.541Z,-1.78
2016-10-19T05:43:37.562Z,-1.7
2016-10-19T05:44:37.537Z,-1.61
2016-10-19T05:45:37.512Z,-1.57
2016-10-19T05:46:37.504Z,-1.8
2016-10-19T05:47:37.486Z,-1.65
2016-10-19T05:48:37.464Z,-1.7
2016-10-19T05:49:37.479Z,-1.75
2016-10-19T05:50:37.437Z,-1.72
2016-10-19T05:51:37.410Z,-1.47
2016-10-19T05:52:37.387Z,-1.39
2016-10-19T05:53:37.388Z,-1.44
2016-10-19T05:54:37.398Z,-1.38
2016-10-19T05:55:37.347Z,-1.39
2016-10-19T05:56:37.319Z,-1.38
2016-10-19T05:57:37.317Z,-1.35
2016-10-19T05:58:37.278Z,-1.32
2016-10-19T05:59:37.296Z,-1.28
2016-10-19T06:00:37.282Z,-1.41
2016-10-19T06:01:37.277Z,-1.41
2016-10-19T06:02:37.248Z,-1.5
2016-10-19T06:03:37.261Z,-1.31
2016-10-19T06:04:37.216Z,-1.43
2016-10-19T06:05:37.200Z,-1.64
2016-10-19T06:06:37.194Z,-1.56
2016-10-19T06:07:37.181Z,-1.56
2016-10-19T06:08:37.149Z,-1.62
2016-10-19T06:09:37.133Z,-1.88
2016-10-19T06:10:37.118Z,-2.07
2016-10-19T06:11:37.128Z,-2.21
2016-10-19T06:12:37.097Z,-2.21
2016-10-19T06:13:37.082Z,-2.24
2016-10-19T06:14:37.023Z,-2.35
2016-10-19T06:15:37.035Z,-2.33
2016-10-19T06:16:36.989Z,-2.35
2016-10-19T06:17:36.972Z,-2.25
2016-10-19T06:18:36.962Z,-2.29
2016-10-19T06:19:36.959Z,-2.35
2016-10-19T06:20:36.938Z,-2.25
2016-10-19T06:21:36.937Z,-2.38
2016-10-19T06:22:36.912Z,-2.35
2016-10-19T06:23:36.907Z,-2.21
2016-10-19T06:24:36.866Z,-2.21
2016-10-19T06:25:36.860Z,-2.24
2016-10-19T06:26:36.852Z,-2.25
2016-10-19T06:27:36.827Z,-2.21
2016-10-19T06:28:36.828Z,-2.21
2016-10-19T06:29:36.757Z,-2.21
2016-10-19T06:30:36.751Z,-2.19
2016-10-19T06:31:36.765Z,-2.16
2016-10-19T06:32:36.725Z,-2.13
2016-10-19T06:33:36.700Z,-2.26
2016-10-19T06:34:36.712Z,-2.08
2016-10-19T06:35:36.674Z,-2.11
2016-10-19T06:36:36.665Z,-2.16
2016-10-19T06:37:36.640Z,-2.04
2016-10-19T06:38:36.633Z,-2.06
2016-10-19T06:39:36.615Z,-1.92
2016-10-19T06:40:36.598Z,-1.93
2016-10-19T06:41:36.607Z,-2.04
2016-10-19T06:42:36.592Z,-2.07
2016-10-19T06:43:36.550Z,-1.98
2016-10-19T06:44:36.514Z,-1.95
2016-10-19T06:45:36.487Z,-1.95
2016-10-19T06:46:36.469Z,-1.95
2016-10-19T06:47:36.477Z,-1.93
2016-10-19T06:48:36.470Z,-1.9
2016-10-19T06:49:36.449Z,-1.96
2016-10-19T06:50:36.388Z,-1.9
2016-10-19T06:51:36.385Z,-1.85
2016-10-19T06:52:36.368Z,-1.83
2016-10-19T06:53:36.361Z,-1.95
2016-10-19T06:54:36.374Z,-1.92
2016-10-19T06:55:36.314Z,-1.9
2016-10-19T06:56:36.318Z,-2
2016-10-19T06:57:36.287Z,-2.04
2016-10-19T06:58:36.308Z,-2.21
2016-10-19T06:59:36.274Z,-2.4
2016-10-19T07:00:36.275Z,-2.33
2016-10-19T07:01:36.234Z,-2.28
2016-10-19T07:02:36.204Z,-2.33
2016-10-19T07:03:36.232Z,-2.38
2016-10-19T07:04:36.177Z,-2.46
2016-10-19T07:05:36.180Z,-2.53
2016-10-19T07:06:36.154Z,-2.58
2016-10-19T07:07:36.106Z,-2.62
2016-10-19T07:08:36.084Z,-2.44
2016-10-19T07:09:36.089Z,-2.33
2016-10-19T07:10:36.072Z,-2.35
2016-10-19T07:11:36.033Z,-2.29
2016-10-19T07:12:36.035Z,-2.28
2016-10-19T07:13:36.044Z,-2.29
2016-10-19T07:14:35.978Z,-2.25
2016-10-19T07:15:35.952Z,-2.24
2016-10-19T07:16:35.941Z,-2.24
2016-10-19T07:17:35.916Z,-2.29
2016-10-19T07:18:35.939Z,-2.24
2016-10-19T07:19:35.889Z,-2.22
2016-10-19T07:20:35.890Z,-2.25
2016-10-19T07:21:35.884Z,-2.32
2016-10-19T07:22:35.869Z,-2.32
2016-10-19T07:23:35.811Z,-2.33
2016-10-19T07:24:35.812Z,-2.29
2016-10-19T07:25:35.804Z,-2.29
2016-10-19T07:26:35.807Z,-2.4
2016-10-19T07:27:35.778Z,-2.43
2016-10-19T07:28:35.759Z,-2.4
2016-10-19T07:29:35.705Z,-2.53
2016-10-19T07:30:35.694Z,-2.58
2016-10-19T07:31:35.708Z,-2.64
2016-10-19T07:32:35.693Z,-2.65
2016-10-19T07:33:35.652Z,-2.59
2016-10-19T07:34:35.636Z,-2.38
2016-10-19T07:35:35.597Z,-2.4
2016-10-19T07:36:35.633Z,-2.25
2016-10-19T07:37:35.594Z,-2.33
2016-10-19T07:38:35.588Z,-2.47
2016-10-19T07:39:35.542Z,-2.33
2016-10-19T07:40:35.539Z,-2.37
2016-10-19T07:41:35.496Z,-2.33
2016-10-19T07:42:35.502Z,-2.43
2016-10-19T07:43:35.488Z,-2.64
2016-10-19T07:44:35.434Z,-2.86
2016-10-19T07:45:35.436Z,-3.08
2016-10-19T07:46:35.434Z,-3.08
2016-10-19T07:47:35.460Z,-2.94
2016-10-19T07:48:35.394Z,-2.95
2016-10-19T07:49:35.358Z,-3.1
2016-10-19T07:50:35.421Z,-2.95
2016-10-19T07:51:35.339Z,-2.97
2016-10-19T07:52:35.292Z,-3.07
2016-10-19T07:53:35.279Z,-3.01
2016-10-19T07:54:35.262Z,-3.01
2016-10-19T07:55:35.255Z,-3.02
2016-10-19T07:56:35.220Z,-3
2016-10-19T07:57:35.249Z,-3.01
2016-10-19T07:58:35.212Z,-2.89
2016-10-19T07:59:35.181Z,-2.95
2016-10-19T08:00:35.184Z,-2.77
2016-10-19T08:01:35.150Z,-2.87
2016-10-19T08:02:35.133Z,-2.71
2016-10-19T08:03:35.141Z,-2.87
2016-10-19T08:04:35.078Z,-2.72
2016-10-19T08:05:35.068Z,-2.74
2016-10-19T08:06:35.052Z,-2.76
2016-10-19T08:07:35.047Z,-2.97
2016-10-19T08:08:35.030Z,-2.97
2016-10-19T08:09:34.981Z,-2.84
2016-10-19T08:10:34.980Z,-3.08
2016-10-19T08:11:34.954Z,-2.95
2016-10-19T08:12:34.937Z,-2.97
2016-10-19T08:13:34.937Z,-2.79
2016-10-19T08:14:34.918Z,-2.97
2016-10-19T08:15:34.904Z,-3.07
2016-10-19T08:16:34.849Z,-3.13
2016-10-19T08:17:34.885Z,-3.12
2016-10-19T08:18:34.853Z,-3.08
2016-10-19T08:19:34.835Z,-3.1
2016-10-19T08:20:34.829Z,-2.95
2016-10-19T08:21:34.795Z,-3
2016-10-19T08:22:34.793Z,-2.98
2016-10-19T08:23:34.742Z,-2.87
2016-10-19T08:24:35.004Z,-2.97
2016-10-19T08:25:34.730Z,-2.93
2016-10-19T08:26:34.684Z,-2.83
2016-10-19T08:27:34.642Z,-2.77
2016-10-19T08:28:34.652Z,-2.82
2016-10-19T08:29:34.631Z,-2.79
2016-10-19T08:30:34.599Z,-2.76
2016-10-19T08:31:34.617Z,-2.76
2016-10-19T08:32:34.565Z,-2.93
2016-10-19T08:33:34.580Z,-2.89
2016-10-19T08:34:34.536Z,-2.93
2016-10-19T08:35:34.530Z,-2.89
2016-10-19T08:36:34.478Z,-2.68
2016-10-19T08:37:34.481Z,-2.8
2016-10-19T08:38:34.497Z,-2.74
2016-10-19T08:39:34.425Z,-2.84
2016-10-19T08:40:34.434Z,-2.8
2016-10-19T08:41:34.387Z,-2.94
2016-10-19T08:42:34.410Z,-2.76
2016-10-19T08:43:34.370Z,-2.86
2016-10-19T08:44:34.373Z,-2.77
2016-10-19T08:45:34.310Z,-2.79
2016-10-19T08:46:34.662Z,-2.69
2016-10-19T08:47:34.319Z,-2.72
2016-10-19T08:48:34.266Z,-2.58
2016-10-19T08:49:34.236Z,-2.59
2016-10-19T08:50:34.248Z,-2.64
2016-10-19T08:51:34.199Z,-2.58
2016-10-19T08:52:34.215Z,-2.4
2016-10-19T08:53:34.176Z,-2.44
2016-10-19T08:54:34.154Z,-2.62
2016-10-19T08:55:34.171Z,-2.79
2016-10-19T08:56:34.145Z,-2.72
2016-10-19T08:57:34.092Z,-2.61
2016-10-19T08:58:34.112Z,-2.62
2016-10-19T08:59:34.066Z,-2.64
2016-10-19T09:00:34.074Z,-2.61
2016-10-19T09:01:34.071Z,-2.65
2016-10-19T09:02:34.006Z,-2.64
2016-10-19T09:03:34.218Z,-2.77
2016-10-19T09:04:33.992Z,-2.74
2016-10-19T09:05:33.976Z,-2.64
2016-10-19T09:06:33.978Z,-2.5
2016-10-19T09:07:33.953Z,-2.58
2016-10-19T09:08:33.943Z,-2.64
2016-10-19T09:09:33.925Z,-2.64
2016-10-19T09:10:33.880Z,-2.65
2016-10-19T09:11:33.856Z,-2.64
2016-10-19T09:12:33.875Z,-2.69
2016-10-19T09:13:33.800Z,-2.69
2016-10-19T09:14:33.779Z,-2.8
2016-10-19T09:15:33.809Z,-2.64
2016-10-19T09:16:33.779Z,-2.29
2016-10-19T09:17:33.779Z,-2.38
2016-10-19T09:18:33.777Z,-2.37
2016-10-19T09:19:33.724Z,-2.47
2016-10-19T09:20:33.692Z,-2.33
2016-10-19T09:21:33.689Z,-2.5
2016-10-19T09:22:33.659Z,-2.5
2016-10-19T09:23:33.620Z,-2.56
2016-10-19T09:24:33.605Z,-2.46
2016-10-19T09:25:33.582Z,-2.35
2016-10-19T09:26:33.624Z,-2.32
2016-10-19T09:27:33.574Z,-2.51
2016-10-19T09:28:33.587Z,-2.72
2016-10-19T09:29:33.512Z,-2.66
2016-10-19T09:30:33.511Z,-2.65
2016-10-19T09:31:33.534Z,-2.59
2016-10-19T09:32:33.483Z,-2.64
2016-10-19T09:33:33.478Z,-2.41
2016-10-19T09:34:33.431Z,-2.47
2016-10-19T09:35:33.462Z,-2.33
2016-10-19T09:36:33.408Z,-2.37
2016-10-19T09:37:33.424Z,-2.4
2016-10-19T09:38:33.347Z,-2.35
2016-10-19T09:39:33.334Z,-2.41
2016-10-19T09:40:33.412Z,-2.48
2016-10-19T09:41:33.342Z,-2.43
2016-10-19T09:42:33.324Z,-2.5
2016-10-19T09:43:33.258Z,-2.48
2016-10-19T09:44:33.283Z,-2.55
2016-10-19T09:45:33.258Z,-2.61
2016-10-19T09:46:33.229Z,-2.48
2016-10-19T09:47:33.199Z,-2.37
2016-10-19T09:48:33.195Z,-2.25
2016-10-19T09:49:33.210Z,-2.22
2016-10-19T09:50:33.177Z,-2.29
2016-10-19T09:51:33.170Z,-1.95
2016-10-19T09:52:33.116Z,-1.85
2016-10-19T09:53:33.145Z,-1.72
2016-10-19T09:54:33.079Z,-1.47
2016-10-19T09:55:33.072Z,-1.29
2016-10-19T09:56:33.044Z,-1.44
2016-10-19T09:57:33.028Z,-1.39
2016-10-19T09:58:32.999Z,-1.53
2016-10-19T09:59:33.013Z,-1.46
2016-10-19T10:00:32.986Z,-1.38
2016-10-19T10:01:32.969Z,-1.32
2016-10-19T10:02:32.948Z,-1.11
2016-10-19T10:03:32.942Z,-1.03
2016-10-19T10:04:32.936Z,-0.95
2016-10-19T10:05:32.884Z,-0.93
2016-10-19T10:06:32.883Z,-1.17
2016-10-19T10:07:32.829Z,-1.32
2016-10-19T10:08:32.833Z,-1.29
2016-10-19T10:09:32.816Z,-0.97
2016-10-19T10:10:32.802Z,-0.17
2016-10-19T10:11:32.795Z,0.38
2016-10-19T10:12:32.752Z,0.49
2016-10-19T10:13:32.780Z,0.15
2016-10-19T10:14:32.766Z,0.4
2016-10-19T10:15:32.729Z,0.37
2016-10-19T10:16:32.706Z,0.02
2016-10-19T10:17:32.688Z,0.12
2016-10-19T10:18:32.678Z,-0.23
2016-10-19T10:19:32.675Z,-0.42
2016-10-19T10:20:32.667Z,-0.23
2016-10-19T10:21:32.645Z,-0.14
2016-10-19T10:22:32.601Z,-0.27
2016-10-19T10:23:32.588Z,-0.73
2016-10-19T10:24:32.592Z,-1.29
2016-10-19T10:25:32.533Z,-1.39
2016-10-19T10:26:32.555Z,-1.36
2016-10-19T10:27:32.535Z,-1.35
2016-10-19T10:28:32.518Z,-0.97
2016-10-19T10:29:32.501Z,-1.05
2016-10-19T10:30:32.493Z,-1.02
2016-10-19T10:31:32.489Z,-0.96
2016-10-19T10:32:32.455Z,-1.21
2016-10-19T10:33:32.433Z,-1.35
2016-10-19T10:34:32.406Z,-1.46
2016-10-19T10:35:32.427Z,-1.35
2016-10-19T10:36:32.385Z,-1.32
2016-10-19T10:37:32.355Z,-1.29
2016-10-19T10:38:32.340Z,-1.1
2016-10-19T10:39:32.549Z,-0.9
2016-10-19T10:40:32.317Z,-0.81
2016-10-19T10:41:32.301Z,-0.97
2016-10-19T10:42:32.303Z,-0.97
2016-10-19T10:43:32.256Z,-0.95
2016-10-19T10:44:32.252Z,-0.93
2016-10-19T10:45:32.239Z,-1.17
2016-10-19T10:46:32.247Z,-1.53
2016-10-19T10:47:32.224Z,-1.49
2016-10-19T10:48:32.176Z,-1.54
2016-10-19T10:49:32.172Z,-1.39
2016-10-19T10:50:32.159Z,-1.41
2016-10-19T10:51:32.159Z,-1.44
2016-10-19T10:52:32.124Z,-1.62
2016-10-19T10:53:32.125Z,-1.67
2016-10-19T10:54:32.110Z,-1.74
2016-10-19T10:55:32.049Z,-1.77
2016-10-19T10:56:32.026Z,-1.8
2016-10-19T10:57:32.063Z,-1.85
2016-10-19T10:58:32.043Z,-1.98
2016-10-19T10:59:32.282Z,-2.08
2016-10-19T11:00:31.970Z,-2.03
2016-10-19T11:01:31.995Z,-2.06
2016-10-19T11:02:31.942Z,-1.98
2016-10-19T11:03:31.924Z,-2.07
2016-10-19T11:04:31.920Z,-2
2016-10-19T11:05:31.903Z,-2.16
2016-10-19T11:06:31.888Z,-2.19
2016-10-19T11:07:32.095Z,-1.98
2016-10-19T11:08:32.064Z,-2.1
2016-10-19T11:09:31.835Z,-2.24
2016-10-19T11:10:31.839Z,-2.19
2016-10-19T11:11:31.903Z,-2.19
2016-10-19T11:12:31.781Z,-2.26
2016-10-19T11:13:31.784Z,-2.28
2016-10-19T11:14:31.728Z,-2.28
2016-10-19T11:15:31.706Z,-2.35
2016-10-19T11:16:31.978Z,-2.29
2016-10-19T11:17:31.677Z,-2.43
2016-10-19T11:18:31.686Z,-2.37
2016-10-19T11:19:31.647Z,-2.4
2016-10-19T11:20:31.629Z,-2.43
2016-10-19T11:21:31.609Z,-2.41
2016-10-19T11:22:31.595Z,-2.35
2016-10-19T11:23:31.597Z,-2.29
2016-10-19T11:24:31.589Z,-2.25
2016-10-19T11:25:31.560Z,-2.08
2016-10-19T11:26:31.519Z,-1.93
2016-10-19T11:27:31.483Z,-1.75
2016-10-19T11:28:31.513Z,-1.88
2016-10-19T11:29:31.469Z,-2.03
2016-10-19T11:30:31.451Z,-2.24
2016-10-19T11:31:31.455Z,-2.21
2016-10-19T11:32:31.423Z,-2.26
2016-10-19T11:33:31.430Z,-2.08
2016-10-19T11:34:31.375Z,-2.06
2016-10-19T11:35:31.561Z,-2.24
2016-10-19T11:36:31.526Z,-2.1
2016-10-19T11:37:31.335Z,-1.89
2016-10-19T11:38:31.319Z,-1.78
2016-10-19T11:39:31.288Z,-1.83
2016-10-19T11:40:31.272Z,-1.68
2016-10-19T11:41:31.247Z,-1.49
2016-10-19T11:42:31.217Z,-1.59
2016-10-19T11:43:31.241Z,-1.86
2016-10-19T11:44:31.267Z,-2.11
2016-10-19T11:45:31.215Z,-2.21
2016-10-19T11:46:31.144Z,-2.01
2016-10-19T11:47:31.141Z,-2.22
2016-10-19T11:48:31.128Z,-2.25
2016-10-19T11:49:31.121Z,-2.11
2016-10-19T11:50:31.104Z,-2.06
2016-10-19T11:51:31.139Z,-2.21
2016-10-19T11:52:31.089Z,-2.19
2016-10-19T11:53:31.049Z,-2.19
2016-10-19T11:54:31.032Z,-2.25
2016-10-19T11:55:31.006Z,-2.44
2016-10-19T11:56:31.000Z,-2.35
2016-10-19T11:57:30.969Z,-2.53
2016-10-19T11:58:30.939Z,-2.53
2016-10-19T11:59:30.990Z,-2.47
2016-10-19T12:00:30.914Z,-2.46
2016-10-19T12:01:30.894Z,-2.61
2016-10-19T12:02:30.944Z,-2.58
2016-10-19T12:03:30.874Z,-2.5
2016-10-19T12:04:30.878Z,-2.46
2016-10-19T12:05:30.855Z,-2.46
2016-10-19T12:06:30.826Z,-2.33
2016-10-19T12:07:30.780Z,-2.47
2016-10-19T12:08:30.768Z,-2.55
2016-10-19T12:09:30.786Z,-2.35
2016-10-19T12:10:30.744Z,-2.24
2016-10-19T12:11:30.728Z,-2.38
2016-10-19T12:12:30.696Z,-2.46
2016-10-19T12:13:30.689Z,-2.35
2016-10-19T12:14:30.675Z,-2.32
2016-10-19T12:15:30.618Z,-2.44
2016-10-19T12:16:30.660Z,-2.64
2016-10-19T12:17:30.609Z,-2.61
2016-10-19T12:18:30.613Z,-2.64
2016-10-19T12:19:30.581Z,-2.5
2016-10-19T12:20:30.544Z,-2.64
2016-10-19T12:21:30.535Z,-2.47
2016-10-19T12:22:30.534Z,-2.51
2016-10-19T12:23:30.591Z,-2.4
2016-10-19T12:24:30.480Z,-2.29
2016-10-19T12:25:30.462Z,-2.35
2016-10-19T12:26:30.431Z,-2.24
2016-10-19T12:27:30.405Z,-2.01
2016-10-19T12:28:30.461Z,-2.07
2016-10-19T12:29:30.389Z,-2.28
2016-10-19T12:30:30.361Z,-2.37
2016-10-19T12:31:30.357Z,-2.41
2016-10-19T12:32:30.351Z,-2.53
2016-10-19T12:33:30.342Z,-2.56
2016-10-19T12:34:30.315Z,-2.46
2016-10-19T12:35:30.339Z,-2.4
2016-10-19T12:36:30.246Z,-2.37
2016-10-19T12:37:30.257Z,-2.41
2016-10-19T12:38:30.231Z,-2.25
2016-10-19T12:39:30.217Z,-2.14
2016-10-19T12:40:30.206Z,-2.07
2016-10-19T12:41:30.190Z,-2.1
2016-10-19T12:42:30.162Z,-1.98
2016-10-19T12:43:30.167Z,-1.93
2016-10-19T12:44:30.128Z,-1.86
2016-10-19T12:45:30.145Z,-1.88
2016-10-19T12:46:30.115Z,-1.88
2016-10-19T12:47:30.056Z,-1.92
2016-10-19T12:48:30.047Z,-1.92
2016-10-19T12:49:30.024Z,-1.72
2016-10-19T12:50:30.358Z,-1.85
2016-10-19T12:51:30.007Z,-1.75
2016-10-19T12:52:30.305Z,-1.75
2016-10-19T12:53:29.981Z,-1.68
2016-10-19T12:54:29.979Z,-1.5
2016-10-19T12:55:29.974Z,-1.5